createdAt,value
2016-02-26T00:00:06.779Z,-0.21
2016-02-26T00:01:06.156Z,-0.21
2016-02-26T00:02:12.660Z,-0.26
2016-02-26T00:03:22.258Z,-0.26
2016-02-26T00:04:15.868Z,-0.3
2016-02-26T00:05:56.748Z,-0.35
2016-02-26T00:06:31.126Z,-0.28
2016-02-26T00:08:02.440Z,-0.38
2016-02-26T00:08:43.803Z,-0.38
2016-02-26T00:10:06.492Z,-0.48
2016-02-26T00:10:57.026Z,-0.42
2016-02-26T00:12:07.264Z,-0.51
2016-02-26T00:12:54.298Z,-0.59
2016-02-26T00:15:31.931Z,-0.62
2016-02-26T00:17:47.639Z,-0.63
2016-02-26T00:18:47.611Z,-0.59
2016-02-26T00:19:53.942Z,-0.6
2016-02-26T00:20:54.508Z,-0.56
2016-02-26T00:23:09.778Z,-0.59
2016-02-26T00:24:28.549Z,-0.46
2016-02-26T00:25:31.677Z,-0.51
2016-02-26T00:26:31.648Z,-0.56
2016-02-26T00:28:12.511Z,-0.53
2016-02-26T00:28:38.122Z,-0.6
2016-02-26T00:29:25.281Z,-0.64
2016-02-26T00:30:51.018Z,-0.53
2016-02-26T00:32:00.630Z,-0.66
2016-02-26T00:32:54.149Z,-0.7
2016-02-26T00:34:09.338Z,-0.66
2016-02-26T00:34:59.623Z,-0.62
2016-02-26T00:36:12.251Z,-0.56
2016-02-26T00:36:59.503Z,-0.59
2016-02-26T00:38:25.211Z,-0.63
2016-02-26T00:39:09.101Z,-0.64
2016-02-26T00:40:28.342Z,-0.54
2016-02-26T00:41:43.532Z,-0.63
2016-02-26T00:42:56.300Z,-0.6
2016-02-26T00:43:43.553Z,-0.59
2016-02-26T00:45:02.837Z,-0.7
2016-02-26T00:45:56.340Z,-0.67
2016-02-26T00:47:46.298Z,-0.6
2016-02-26T00:48:11.595Z,-0.66
2016-02-26T00:49:11.628Z,-0.7
2016-02-26T00:50:11.600Z,-0.63
2016-02-26T00:51:24.434Z,-0.72
2016-02-26T00:52:24.422Z,-0.69
2016-02-26T00:53:37.330Z,-0.72
2016-02-26T00:55:08.645Z,-0.67
2016-02-26T00:56:18.241Z,-0.63
2016-02-26T01:00:22.253Z,-0.62
2016-02-26T01:00:37.646Z,-0.67
2016-02-26T01:02:46.963Z,-0.69
2016-02-26T01:03:46.967Z,-0.62
2016-02-26T01:04:53.047Z,-0.66
2016-02-26T01:05:50.035Z,-0.67
2016-02-26T01:07:09.256Z,-0.78
2016-02-26T01:07:50.071Z,-0.77
2016-02-26T01:09:15.745Z,-0.63
2016-02-26T01:09:50.076Z,-0.7
2016-02-26T01:11:22.829Z,-0.74
2016-02-26T01:12:01.054Z,-0.7
2016-02-26T01:13:01.045Z,-0.7
2016-02-26T01:14:07.426Z,-0.53
2016-02-26T01:15:32.376Z,-0.51
2016-02-26T01:16:10.720Z,-0.49
2016-02-26T01:18:51.496Z,-0.24
2016-02-26T01:19:25.806Z,-0.23
2016-02-26T01:20:57.117Z,-0.23
2016-02-26T01:21:38.447Z,-0.23
2016-02-26T01:23:06.667Z,-0.02
2016-02-26T01:23:44.886Z,-0.05
2016-02-26T01:25:16.231Z,0
2016-02-26T01:26:00.092Z,0
2016-02-26T01:26:59.984Z,-0.07
2016-02-26T01:29:15.301Z,-0.09
2016-02-26T01:30:15.396Z,-0.05
2016-02-26T01:32:30.497Z,-0.18
2016-02-26T01:33:30.530Z,-0.23
2016-02-26T01:35:46.568Z,-0.2
2016-02-26T01:36:46.539Z,-0.28
2016-02-26T01:38:12.479Z,-0.17
2016-02-26T01:39:22.044Z,-0.24
2016-02-26T01:40:05.938Z,-0.31
2016-02-26T01:41:25.207Z,-0.35
2016-02-26T01:42:09.177Z,-0.41
2016-02-26T01:43:34.777Z,-0.49
2016-02-26T01:44:16.074Z,-0.54
2016-02-26T01:45:44.329Z,-0.51
2016-02-26T01:46:13.110Z,-0.49
2016-02-26T01:47:13.066Z,-0.53
2016-02-26T01:48:19.351Z,-0.51
2016-02-26T01:50:32.811Z,-0.63
2016-02-26T01:52:33.676Z,-0.69
2016-02-26T01:53:32.289Z,-0.62
2016-02-26T01:54:51.509Z,-0.72
2016-02-26T01:55:45.044Z,-0.72
2016-02-26T01:57:03.625Z,-0.72
2016-02-26T01:57:45.112Z,-0.84
2016-02-26T01:58:32.348Z,-0.84
2016-02-26T02:00:03.664Z,-0.93
2016-02-26T02:00:41.900Z,-0.8
2016-02-26T02:01:41.903Z,-0.89
2016-02-26T02:02:54.688Z,-0.89
2016-02-26T02:03:41.955Z,-0.85
2016-02-26T02:05:06.880Z,-0.96
2016-02-26T02:05:50.774Z,-1.03
2016-02-26T02:07:09.980Z,-0.96
2016-02-26T02:07:50.763Z,-1.07
2016-02-26T02:09:16.469Z,-1.04
2016-02-26T02:10:26.049Z,-1.01
2016-02-26T02:11:00.381Z,-1.04
2016-02-26T02:13:01.886Z,-1.04
2016-02-26T02:14:00.435Z,-1.14
2016-02-26T02:15:19.595Z,-1.07
2016-02-26T02:16:08.129Z,-1.04
2016-02-26T02:17:26.100Z,-1
2016-02-26T02:18:00.462Z,-1
2016-02-26T02:19:32.373Z,-1.15
2016-02-26T02:20:42.017Z,-1.17
2016-02-26T02:21:35.489Z,-1.12
2016-02-26T02:23:16.334Z,-1.11
2016-02-26T02:23:48.103Z,-1.09
2016-02-26T02:24:29.168Z,-1.14
2016-02-26T02:25:28.937Z,-1.12
2016-02-26T02:26:29.002Z,-1.14
2016-02-26T02:27:29.161Z,-1.14
2016-02-26T02:28:29.367Z,-1.12
2016-02-26T02:29:35.261Z,-1.09
2016-02-26T02:30:29.606Z,-1.17
2016-02-26T02:31:35.500Z,-1.14
2016-02-26T02:32:29.018Z,-1.14
2016-02-26T02:33:28.881Z,-1.22
2016-02-26T02:34:41.742Z,-1.19
2016-02-26T02:35:29.042Z,-1.17
2016-02-26T02:36:29.044Z,-1.25
2016-02-26T02:37:35.344Z,-1.19
2016-02-26T02:38:29.487Z,-1.22
2016-02-26T02:39:35.349Z,-1.15
2016-02-26T02:40:29.508Z,-1.3
2016-02-26T02:41:29.121Z,-1.11
2016-02-26T02:42:41.858Z,-1.22
2016-02-26T02:43:29.235Z,-1.17
2016-02-26T02:44:48.346Z,-1.22
2016-02-26T02:45:29.162Z,-1.12
2016-02-26T02:46:29.166Z,-1.12
2016-02-26T02:47:29.402Z,-1.35
2016-02-26T02:48:29.202Z,-1.27
2016-02-26T02:49:29.204Z,-1.29
2016-02-26T02:50:41.926Z,-1.36
2016-02-26T02:51:35.490Z,-1.27
2016-02-26T02:52:29.243Z,-1.32
2016-02-26T02:53:35.387Z,-1.39
2016-02-26T02:54:32.359Z,-1.38
2016-02-26T02:55:45.081Z,-1.42
2016-02-26T02:56:45.098Z,-1.32
2016-02-26T02:57:51.569Z,-1.33
2016-02-26T02:58:51.713Z,-1.36
2016-02-26T02:59:58.076Z,-1.33
2016-02-26T03:01:29.406Z,-1.27
2016-02-26T03:02:13.300Z,-1.24
2016-02-26T03:04:22.852Z,-1.22
2016-02-26T03:05:35.580Z,-1.25
2016-02-26T03:06:35.818Z,-1.25
2016-02-26T03:07:42.071Z,-1.25
2016-02-26T03:08:48.573Z,-1.33
2016-02-26T03:09:54.202Z,-1.33
2016-02-26T03:10:22.873Z,-1.32
2016-02-26T03:11:54.208Z,-1.25
2016-02-26T03:12:35.663Z,-1.32
2016-02-26T03:13:22.928Z,-1.29
2016-02-26T03:14:22.947Z,-1.3
2016-02-26T03:15:35.686Z,-1.25
2016-02-26T03:16:22.952Z,-1.27
2016-02-26T03:17:42.160Z,-1.33
2016-02-26T03:18:35.726Z,-1.3
2016-02-26T03:19:23.007Z,-1.29
2016-02-26T03:20:23.619Z,-1.29
2016-02-26T03:21:23.028Z,-1.36
2016-02-26T03:22:23.624Z,-1.35
2016-02-26T03:23:23.658Z,-1.29
2016-02-26T03:24:23.114Z,-1.32
2016-02-26T03:25:23.696Z,-1.25
2016-02-26T03:26:23.682Z,-1.35
2016-02-26T03:27:23.091Z,-1.17
2016-02-26T03:28:23.312Z,-1.21
2016-02-26T03:29:35.990Z,-1.18
2016-02-26T03:30:29.599Z,-1.21
2016-02-26T03:31:42.339Z,-1.17
2016-02-26T03:32:35.889Z,-1.22
2016-02-26T03:33:48.828Z,-1.25
2016-02-26T03:34:42.394Z,-1.15
2016-02-26T03:35:54.522Z,-1.29
2016-02-26T03:36:36.524Z,-1.21
2016-02-26T03:37:54.481Z,-1.29
2016-02-26T03:38:32.733Z,-1.27
2016-02-26T03:39:32.736Z,-1.33
2016-02-26T03:40:33.378Z,-1.32
2016-02-26T03:41:45.553Z,-1.3
2016-02-26T03:42:45.525Z,-1.3
2016-02-26T03:43:51.981Z,-1.38
2016-02-26T03:44:52.030Z,-1.38
2016-02-26T03:45:32.783Z,-1.36
2016-02-26T03:46:58.707Z,-1.4
2016-02-26T03:47:42.585Z,-1.45
2016-02-26T03:49:08.275Z,-1.32
2016-02-26T03:49:42.621Z,-1.33
2016-02-26T03:50:42.656Z,-1.36
2016-02-26T03:51:42.643Z,-1.39
2016-02-26T03:52:42.645Z,-1.36
2016-02-26T03:53:44.085Z,-1.25
2016-02-26T03:54:48.932Z,-1.24
2016-02-26T03:55:42.685Z,-1.3
2016-02-26T03:56:42.688Z,-1.33
2016-02-26T03:57:44.315Z,-1.33
2016-02-26T03:58:48.974Z,-1.38
2016-02-26T03:59:55.476Z,-1.33
2016-02-26T04:00:42.901Z,-1.25
2016-02-26T04:01:55.545Z,-1.36
2016-02-26T04:02:42.766Z,-1.3
2016-02-26T04:03:56.925Z,-1.38
2016-02-26T04:04:42.756Z,-1.35
2016-02-26T04:06:08.273Z,-1.35
2016-02-26T04:06:42.808Z,-1.42
2016-02-26T04:07:42.795Z,-1.38
2016-02-26T04:08:42.813Z,-1.45
2016-02-26T04:10:02.050Z,-1.33
2016-02-26T04:10:45.944Z,-1.38
2016-02-26T04:11:58.680Z,-1.43
2016-02-26T04:12:45.949Z,-1.48
2016-02-26T04:13:55.500Z,-1.4
2016-02-26T04:14:55.517Z,-1.36
2016-02-26T04:16:08.270Z,-1.39
2016-02-26T04:16:55.553Z,-1.39
2016-02-26T04:18:14.853Z,-1.43
2016-02-26T04:18:55.574Z,-1.46
2016-02-26T04:20:21.233Z,-1.51
2016-02-26T04:20:55.580Z,-1.46
2016-02-26T04:22:26.896Z,-1.43
2016-02-26T04:22:55.601Z,-1.5
2016-02-26T04:23:55.604Z,-1.46
2016-02-26T04:25:10.793Z,-1.5
2016-02-26T04:26:10.796Z,-1.5
2016-02-26T04:27:16.925Z,-1.46
2016-02-26T04:28:10.865Z,-1.58
2016-02-26T04:29:30.071Z,-1.53
2016-02-26T04:30:10.948Z,-1.57
2016-02-26T04:31:36.734Z,-1.54
2016-02-26T04:32:20.843Z,-1.53
2016-02-26T04:33:39.928Z,-1.5
2016-02-26T04:34:26.990Z,-1.46
2016-02-26T04:35:47.870Z,-1.43
2016-02-26T04:36:33.479Z,-1.38
2016-02-26T04:37:52.094Z,-1.4
2016-02-26T04:38:27.078Z,-1.35
2016-02-26T04:39:20.784Z,-1.32
2016-02-26T04:40:39.993Z,-1.35
2016-02-26T04:41:21.056Z,-1.32
2016-02-26T04:42:46.452Z,-1.38
2016-02-26T04:43:20.795Z,-1.33
2016-02-26T04:46:01.648Z,-1.33
2016-02-26T04:46:35.963Z,-1.35
2016-02-26T04:48:07.309Z,-1.3
2016-02-26T04:48:38.280Z,-1.39
2016-02-26T04:49:35.986Z,-1.33
2016-02-26T04:50:48.769Z,-1.29
2016-02-26T04:51:36.038Z,-1.29
2016-02-26T04:53:01.698Z,-1.25
2016-02-26T04:53:36.060Z,-1.29
2016-02-26T04:55:07.359Z,-1.36
2016-02-26T04:55:48.643Z,-1.38
2016-02-26T04:57:11.348Z,-1.4
2016-02-26T04:57:49.618Z,-1.36
2016-02-26T04:59:46.623Z,-1.29
2016-02-26T05:00:11.169Z,-1.36
2016-02-26T05:00:58.297Z,-1.42
2016-02-26T05:01:58.487Z,-1.46
2016-02-26T05:02:58.474Z,-1.48
2016-02-26T05:05:08.188Z,-1.54
2016-02-26T05:06:04.801Z,-1.56
2016-02-26T05:07:19.991Z,-1.58
2016-02-26T05:08:19.993Z,-1.6
2016-02-26T05:09:20.012Z,-1.56
2016-02-26T05:10:32.780Z,-1.5
2016-02-26T05:11:32.830Z,-1.5
2016-02-26T05:12:20.067Z,-1.51
2016-02-26T05:13:39.291Z,-1.42
2016-02-26T05:14:20.073Z,-1.43
2016-02-26T05:16:35.406Z,-1.57
2016-02-26T05:17:35.408Z,-1.56
2016-02-26T05:19:06.711Z,-1.48
2016-02-26T05:19:44.979Z,-1.57
2016-02-26T05:21:10.669Z,-1.54
2016-02-26T05:21:54.594Z,-1.45
2016-02-26T05:22:54.565Z,-1.36
2016-02-26T05:24:57.195Z,-1.45
2016-02-26T05:25:35.399Z,-1.42
2016-02-26T05:26:09.792Z,-1.4
2016-02-26T05:28:50.613Z,-1.36
2016-02-26T05:29:25.035Z,-1.36
2016-02-26T05:31:28.181Z,-1.35
2016-02-26T05:32:06.433Z,-1.29
2016-02-26T05:32:40.763Z,-1.39
2016-02-26T05:33:40.751Z,-1.35
2016-02-26T05:34:53.519Z,-1.38
2016-02-26T05:35:40.788Z,-1.42
2016-02-26T05:37:06.510Z,-1.43
2016-02-26T05:37:50.402Z,-1.45
2016-02-26T05:38:50.374Z,-1.33
2016-02-26T05:39:50.423Z,-1.38
2016-02-26T05:40:50.410Z,-1.4
2016-02-26T05:41:50.428Z,-1.4
2016-02-26T05:42:50.697Z,-1.33
2016-02-26T05:43:50.653Z,-1.43
2016-02-26T05:45:03.218Z,-1.42
2016-02-26T05:46:03.206Z,-1.4
2016-02-26T05:47:16.364Z,-1.43
2016-02-26T05:48:09.726Z,-1.56
2016-02-26T05:49:24.901Z,-1.72
2016-02-26T05:50:37.701Z,-1.58
2016-02-26T05:51:24.937Z,-1.58
2016-02-26T05:52:50.615Z,-1.58
2016-02-26T05:53:24.943Z,-1.56
2016-02-26T05:54:25.071Z,-1.51
2016-02-26T05:55:37.730Z,-1.48
2016-02-26T05:56:24.982Z,-1.56
2016-02-26T05:57:50.675Z,-1.43
2016-02-26T05:58:34.566Z,-1.4
2016-02-26T05:59:53.789Z,-1.39
2016-02-26T06:00:40.855Z,-1.27
2016-02-26T06:02:00.374Z,-1.3
2016-02-26T06:02:53.814Z,-1.25
2016-02-26T06:04:15.285Z,-1.27
2016-02-26T06:05:08.850Z,-1.17
2016-02-26T06:06:21.805Z,-1.19
2016-02-26T06:07:09.058Z,-1.12
2016-02-26T06:08:28.374Z,-1.06
2016-02-26T06:09:09.096Z,-1.06
2016-02-26T06:10:35.051Z,-1.11
2016-02-26T06:11:18.929Z,-1.04
2016-02-26T06:12:38.275Z,-1.04
2016-02-26T06:13:19.028Z,-1
2016-02-26T06:14:44.659Z,-0.78
2016-02-26T06:15:19.018Z,-0.85
2016-02-26T06:16:19.021Z,-0.75
2016-02-26T06:17:19.007Z,-0.66
2016-02-26T06:18:19.042Z,-0.72
2016-02-26T06:19:19.059Z,-0.64
2016-02-26T06:20:19.047Z,-0.62
2016-02-26T06:21:31.877Z,-0.6
2016-02-26T06:22:19.084Z,-0.48
2016-02-26T06:23:44.745Z,-0.45
2016-02-26T06:24:28.651Z,-0.54
2016-02-26T06:27:53.583Z,-0.41
2016-02-26T06:28:40.853Z,-0.33
2016-02-26T06:30:06.558Z,-0.36
2016-02-26T06:30:53.623Z,-0.27
2016-02-26T06:32:13.610Z,-0.3
2016-02-26T06:33:26.191Z,-0.27
2016-02-26T06:33:57.490Z,-0.23
2016-02-26T06:34:57.525Z,-0.23
2016-02-26T06:36:16.730Z,-0.23
2016-02-26T06:36:57.577Z,-0.1
2016-02-26T06:39:00.160Z,-0.03
2016-02-26T06:39:38.410Z,-0.1
2016-02-26T06:40:12.756Z,-0.03
2016-02-26T06:42:53.730Z,0.05
2016-02-26T06:43:28.105Z,0.06
2016-02-26T06:45:25.047Z,0.02
2016-02-26T06:45:37.906Z,0.06
2016-02-26T06:47:34.881Z,0.09
2016-02-26T06:47:59.696Z,0.15
2016-02-26T06:50:46.830Z,0.24
2016-02-26T06:53:21.553Z,0.26
2016-02-26T06:53:55.822Z,0.26
2016-02-26T06:54:55.747Z,0.3
2016-02-26T06:56:05.436Z,0.3
2016-02-26T06:57:14.985Z,0.31
2016-02-26T06:58:24.598Z,0.37
2016-02-26T07:00:34.135Z,0.44
2016-02-26T07:01:53.343Z,0.47
2016-02-26T07:02:34.140Z,0.55
2016-02-26T07:04:05.457Z,0.63
2016-02-26T07:04:43.710Z,0.64
2016-02-26T07:06:47.763Z,0.77
2016-02-26T07:07:26.013Z,0.78
2016-02-26T07:08:00.423Z,0.78
2016-02-26T07:09:00.487Z,0.89
2016-02-26T07:10:00.395Z,0.95
2016-02-26T07:11:00.398Z,1.03
2016-02-26T07:12:00.418Z,1.09
2016-02-26T07:13:00.514Z,1.14
2016-02-26T07:14:13.189Z,1.21
2016-02-26T07:15:00.519Z,1.38
2016-02-26T07:16:19.912Z,1.36
2016-02-26T07:17:01.305Z,1.36
2016-02-26T07:18:26.261Z,1.64
2016-02-26T07:19:00.482Z,1.7
2016-02-26T07:20:26.173Z,1.71
2016-02-26T07:21:10.083Z,1.74
2016-02-26T07:22:10.085Z,1.74
2016-02-26T07:23:16.369Z,1.61
2016-02-26T07:24:10.105Z,1.6
2016-02-26T07:25:10.125Z,1.61
2016-02-26T07:26:10.142Z,1.61
2016-02-26T07:27:10.145Z,1.52
2016-02-26T07:28:22.882Z,1.34
2016-02-26T07:29:10.369Z,1.24
2016-02-26T07:30:29.402Z,1.22
2016-02-26T07:31:16.468Z,1.27
2016-02-26T07:32:10.220Z,1.21
2016-02-26T07:33:10.224Z,1.24
2016-02-26T07:34:10.243Z,1.13
2016-02-26T07:35:10.245Z,1.21
2016-02-26T07:36:22.998Z,1.22
2016-02-26T07:37:23.015Z,1.25
2016-02-26T07:38:10.315Z,1.24
2016-02-26T07:39:29.521Z,1.3
2016-02-26T07:40:16.587Z,1.28
2016-02-26T07:41:36.214Z,1.24
2016-02-26T07:42:20.232Z,1.28
2016-02-26T07:43:46.144Z,1.28
2016-02-26T07:44:20.253Z,1.2
2016-02-26T07:45:52.196Z,1.13
2016-02-26T07:46:30.415Z,1.25
2016-02-26T07:47:30.434Z,1.24
2016-02-26T07:48:30.483Z,1.31
2016-02-26T07:49:30.454Z,1.39
2016-02-26T07:50:30.488Z,1.36
2016-02-26T07:51:43.225Z,1.49
2016-02-26T07:52:31.086Z,1.5
2016-02-26T07:53:49.717Z,1.63
2016-02-26T07:54:30.514Z,1.64
2016-02-26T07:55:56.254Z,1.75
2016-02-26T07:57:05.882Z,1.92
2016-02-26T07:58:15.227Z,2.03
2016-02-26T07:59:08.950Z,2.04
2016-02-26T08:00:15.344Z,2.03
2016-02-26T08:02:08.958Z,2.14
2016-02-26T08:02:34.396Z,2.23
2016-02-26T08:03:34.351Z,2.61
2016-02-26T08:04:34.369Z,2.76
2016-02-26T08:05:40.668Z,2.73
2016-02-26T08:06:34.390Z,2.69
2016-02-26T08:07:53.630Z,2.51
2016-02-26T08:08:34.271Z,2.5
2016-02-26T08:10:00.135Z,2.61
2016-02-26T08:10:40.760Z,2.64
2016-02-26T08:12:05.829Z,2.65
2016-02-26T08:12:37.610Z,2.68
2016-02-26T08:14:34.600Z,2.72
2016-02-26T08:14:47.196Z,2.7
2016-02-26T08:16:12.886Z,2.83
2016-02-26T08:16:51.139Z,2.95
2016-02-26T08:18:55.175Z,2.83
2016-02-26T08:19:33.441Z,2.93
2016-02-26T08:20:07.756Z,2.93
2016-02-26T08:22:48.749Z,2.95
2016-02-26T08:23:23.155Z,2.88
2016-02-26T08:25:38.301Z,2.7
2016-02-26T08:26:38.366Z,2.65
2016-02-26T08:27:38.338Z,2.54
2016-02-26T08:28:38.372Z,2.62
2016-02-26T08:29:44.655Z,2.58
2016-02-26T08:30:38.377Z,2.58
2016-02-26T08:31:51.351Z,2.58
2016-02-26T08:32:39.819Z,2.59
2016-02-26T08:35:13.640Z,2.4
2016-02-26T08:36:00.721Z,2.32
2016-02-26T08:37:50.617Z,2.16
2016-02-26T08:38:19.085Z,2.22
2016-02-26T08:39:15.948Z,2.19
2016-02-26T08:40:28.762Z,2.21
2016-02-26T08:41:15.953Z,2.19
2016-02-26T08:43:25.787Z,2.39
2016-02-26T08:44:25.789Z,2.44
2016-02-26T08:47:07.298Z,2.85
2016-02-26T08:47:45.548Z,2.76
2016-02-26T08:48:45.550Z,2.87
2016-02-26T08:50:42.540Z,2.91
2016-02-26T08:51:01.386Z,2.73
2016-02-26T08:52:01.389Z,2.85
2016-02-26T08:53:14.158Z,2.88
2016-02-26T08:54:07.691Z,2.97
2016-02-26T08:55:20.694Z,3.13
2016-02-26T08:56:20.681Z,3.27
2016-02-26T08:57:42.325Z,3.24
2016-02-26T08:58:35.889Z,3.33
2016-02-26T08:59:48.630Z,3.4
2016-02-26T09:00:48.694Z,3.43
2016-02-26T09:02:32.900Z,3.4
2016-02-26T09:03:07.716Z,3.37
2016-02-26T09:04:36.000Z,3.21
2016-02-26T09:05:20.377Z,3.29
2016-02-26T09:06:39.615Z,3.29
2016-02-26T09:07:26.680Z,3.41
2016-02-26T09:08:51.732Z,3.64
2016-02-26T09:09:33.669Z,3.77
2016-02-26T09:11:39.081Z,3.94
2016-02-26T09:11:51.709Z,3.82
2016-02-26T09:12:51.712Z,3.82
2016-02-26T09:13:52.011Z,3.88
2016-02-26T09:14:51.732Z,3.99
2016-02-26T09:15:51.767Z,3.99
2016-02-26T09:16:51.801Z,3.92
2016-02-26T09:17:58.725Z,3.61
2016-02-26T09:19:04.540Z,3.68
2016-02-26T09:20:11.262Z,3.81
2016-02-26T09:21:04.561Z,3.86
2016-02-26T09:21:51.954Z,4.07
2016-02-26T09:24:01.444Z,4.02
2016-02-26T09:25:14.431Z,4.04
2016-02-26T09:26:07.824Z,4.13
2016-02-26T09:27:01.483Z,4.31
2016-02-26T09:28:20.705Z,4.53
2016-02-26T09:29:14.473Z,4.67
2016-02-26T09:30:32.819Z,4.66
2016-02-26T09:31:16.713Z,4.6
2016-02-26T09:32:16.747Z,4.56
2016-02-26T09:33:16.749Z,4.63
2016-02-26T09:34:16.736Z,4.67
2016-02-26T09:35:23.646Z,4.71
2016-02-26T09:36:29.663Z,4.75
2016-02-26T09:37:29.541Z,4.75
2016-02-26T09:39:32.985Z,4.56
2016-02-26T09:40:16.893Z,4.45
2016-02-26T09:43:29.323Z,4.64
2016-02-26T09:44:55.062Z,4.84
2016-02-26T09:46:04.598Z,4.92
2016-02-26T09:46:48.473Z,4.98
2016-02-26T09:47:48.568Z,5.08
2016-02-26T09:48:48.805Z,5.22
2016-02-26T09:49:54.811Z,5.26
2016-02-26T09:51:07.751Z,5.26
2016-02-26T09:52:07.770Z,5.54
2016-02-26T09:53:22.960Z,5.47
2016-02-26T09:54:32.415Z,5.52
2016-02-26T09:55:13.231Z,5.52
2016-02-26T09:56:38.921Z,5.38
2016-02-26T09:57:22.861Z,5.49
2016-02-26T09:58:48.520Z,5.31
2016-02-26T09:59:32.647Z,5.34
2016-02-26T10:00:32.681Z,5.43
2016-02-26T10:02:03.983Z,5.47
2016-02-26T10:02:47.905Z,5.51
2016-02-26T10:03:47.986Z,5.59
2016-02-26T10:05:00.679Z,5.88
2016-02-26T10:06:00.635Z,6.05
2016-02-26T10:07:13.638Z,6.13
2016-02-26T10:07:47.982Z,6.07
2016-02-26T10:09:13.659Z,6.15
2016-02-26T10:09:47.971Z,5.95
2016-02-26T10:12:28.885Z,5.92
2016-02-26T10:13:03.248Z,5.98
2016-02-26T10:15:18.676Z,6.28
2016-02-26T10:16:18.709Z,6.35
2016-02-26T10:17:24.990Z,6.56
2016-02-26T10:18:31.450Z,6.56
2016-02-26T10:19:37.940Z,6.57
2016-02-26T10:20:37.606Z,6.54
2016-02-26T10:24:37.132Z,6.53
2016-02-26T10:25:37.175Z,6.72
2016-02-26T10:26:37.346Z,6.87
2016-02-26T10:27:37.861Z,7
2016-02-26T10:28:49.956Z,7.08
2016-02-26T10:29:49.988Z,7.01
2016-02-26T10:31:02.896Z,7.07
2016-02-26T10:31:56.429Z,7.05
2016-02-26T10:33:08.556Z,7.19
2016-02-26T10:33:52.497Z,7.23
2016-02-26T10:34:52.514Z,7.25
2016-02-26T10:37:07.737Z,7.26
2016-02-26T10:38:07.739Z,7.19
2016-02-26T10:40:10.369Z,7.05
2016-02-26T10:40:23.822Z,7.14
2016-02-26T10:41:23.574Z,7.1
2016-02-26T10:42:54.940Z,7.25
2016-02-26T10:43:33.237Z,7.39
2016-02-26T10:46:14.417Z,7.22
2016-02-26T10:46:48.651Z,7.4
2016-02-26T10:48:20.000Z,7.4
2016-02-26T10:48:58.253Z,7.33
2016-02-26T10:50:23.927Z,7.48
2016-02-26T10:51:07.806Z,7.66
2016-02-26T10:52:07.823Z,7.74
2016-02-26T10:54:49.313Z,7.67
2016-02-26T10:55:23.691Z,7.67
2016-02-26T10:57:38.867Z,7.53
2016-02-26T10:58:58.108Z,7.41
2016-02-26T10:59:38.889Z,7.4
2016-02-26T11:01:37.300Z,7.5
2016-02-26T11:02:09.100Z,7.51
2016-02-26T11:02:49.725Z,7.47
2016-02-26T11:04:52.730Z,7.23
2016-02-26T11:05:05.311Z,7.23
2016-02-26T11:06:05.329Z,7.19
2016-02-26T11:07:11.598Z,7.14
2016-02-26T11:08:11.881Z,7.15
2016-02-26T11:09:11.697Z,6.89
2016-02-26T11:10:18.122Z,7
2016-02-26T11:11:11.671Z,7.05
2016-02-26T11:12:24.704Z,7.23
2016-02-26T11:13:21.380Z,7.28
2016-02-26T11:15:24.823Z,7.33
2016-02-26T11:16:08.731Z,7.25
2016-02-26T11:18:49.690Z,7.07
2016-02-26T11:19:55.945Z,7.01
2016-02-26T11:20:51.086Z,7.04
2016-02-26T11:22:08.950Z,7.03
2016-02-26T11:23:02.453Z,6.95
2016-02-26T11:24:21.033Z,7.03
2016-02-26T11:25:08.849Z,7
2016-02-26T11:26:49.820Z,6.9
2016-02-26T11:27:21.402Z,7.03
2016-02-26T11:29:34.392Z,6.97
2016-02-26T11:30:49.816Z,6.9
2016-02-26T11:31:40.881Z,6.86
2016-02-26T11:32:52.946Z,6.96
2016-02-26T11:33:43.980Z,6.95
2016-02-26T11:34:56.094Z,7.07
2016-02-26T11:35:52.719Z,7.07
2016-02-26T11:36:40.019Z,7.14
2016-02-26T11:38:24.900Z,7.21
2016-02-26T11:38:40.650Z,7.25
2016-02-26T11:39:40.044Z,7.25
2016-02-26T11:40:52.827Z,7.28
2016-02-26T11:41:40.454Z,7.39
2016-02-26T11:42:52.849Z,7.5
2016-02-26T11:43:40.116Z,7.48
2016-02-26T11:44:59.340Z,7.66
2016-02-26T11:45:40.387Z,7.74
2016-02-26T11:46:59.487Z,7.83
2016-02-26T11:47:40.346Z,7.88
2016-02-26T11:49:05.882Z,8.03
2016-02-26T11:50:15.650Z,7.83
2016-02-26T11:53:08.222Z,8.05
2016-02-26T11:53:52.097Z,8.06
2016-02-26T11:54:52.146Z,7.83
2016-02-26T11:55:52.774Z,7.69
2016-02-26T11:57:04.764Z,7.58
2016-02-26T11:57:52.186Z,7.51
2016-02-26T11:59:17.894Z,7.48
2016-02-26T11:59:52.238Z,7.56
2016-02-26T12:01:23.727Z,7.43
2016-02-26T12:01:52.868Z,7.44
2016-02-26T12:02:52.574Z,7.56
2016-02-26T12:04:05.047Z,7.7
2016-02-26T12:04:52.938Z,7.88
2016-02-26T12:07:27.650Z,8.03
2016-02-26T12:08:01.965Z,8.03
2016-02-26T12:10:02.079Z,8.21
2016-02-26T12:11:02.066Z,8.42
2016-02-26T12:12:02.116Z,8.46
2016-02-26T12:13:14.837Z,8.53
2016-02-26T12:14:14.856Z,8.46
2016-02-26T12:15:21.546Z,8.36
2016-02-26T12:16:02.159Z,8.39
2016-02-26T12:17:27.864Z,8.24
2016-02-26T12:18:11.851Z,8.14
2016-02-26T12:19:12.198Z,8.24
2016-02-26T12:20:18.153Z,8.24
2016-02-26T12:21:11.859Z,8.41
2016-02-26T12:22:31.081Z,8.46
2016-02-26T12:23:18.161Z,8.6
2016-02-26T12:24:37.789Z,8.71
2016-02-26T12:25:13.370Z,8.69
2016-02-26T12:27:27.188Z,8.93
2016-02-26T12:28:27.206Z,8.97
2016-02-26T12:30:29.805Z,8.93
2016-02-26T12:30:42.664Z,8.89
2016-02-26T12:31:42.433Z,8.99
2016-02-26T12:32:42.467Z,9.05
2016-02-26T12:33:42.705Z,9.12
2016-02-26T12:34:55.363Z,9.19
2016-02-26T12:35:42.538Z,9.34
2016-02-26T12:37:01.855Z,9.47
2016-02-26T12:37:43.136Z,9.56
2016-02-26T12:39:01.986Z,9.72
2016-02-26T12:39:50.392Z,9.64
2016-02-26T12:41:08.194Z,9.63
2016-02-26T12:41:52.054Z,9.76
2016-02-26T12:43:14.919Z,9.67
2016-02-26T12:43:55.357Z,9.77
2016-02-26T12:45:14.908Z,9.72
2016-02-26T12:46:08.395Z,9.56
2016-02-26T12:47:55.148Z,9.72
2016-02-26T12:48:30.229Z,9.67
2016-02-26T12:49:24.590Z,9.74
2016-02-26T12:50:36.609Z,9.64
2016-02-26T12:51:24.206Z,9.69
2016-02-26T12:52:36.849Z,9.58
2016-02-26T12:53:23.945Z,9.47
2016-02-26T12:54:24.198Z,9.63
2016-02-26T12:55:23.967Z,9.56
2016-02-26T12:56:36.734Z,9.74
2016-02-26T12:57:24.065Z,9.64
2016-02-26T12:58:49.959Z,9.49
2016-02-26T12:59:24.102Z,9.37
2016-02-26T13:00:24.105Z,9.27
2016-02-26T13:01:24.389Z,9.21
2016-02-26T13:02:24.094Z,9.18
2016-02-26T13:03:24.176Z,8.99
2016-02-26T13:04:24.396Z,8.78
2016-02-26T13:05:24.180Z,8.68
2016-02-26T13:06:24.246Z,8.56
2016-02-26T13:07:24.608Z,8.44
2016-02-26T13:08:24.266Z,8.35
2016-02-26T13:09:24.254Z,7.91
2016-02-26T13:10:24.257Z,7.83
2016-02-26T13:11:24.274Z,7.58
2016-02-26T13:12:24.324Z,7.44
2016-02-26T13:13:24.499Z,7.37
2016-02-26T13:14:24.579Z,7.22
2016-02-26T13:15:24.395Z,7.18
2016-02-26T13:16:24.398Z,7.01
2016-02-26T13:17:24.651Z,7.01
2016-02-26T13:18:24.715Z,6.87
2016-02-26T13:19:24.469Z,6.78
2016-02-26T13:20:24.456Z,6.78
2016-02-26T13:21:24.708Z,6.65
2016-02-26T13:22:24.539Z,6.39
2016-02-26T13:23:24.978Z,6.41
2016-02-26T13:24:24.592Z,6.17
2016-02-26T13:25:24.844Z,6.22
2016-02-26T13:26:24.659Z,6.15
2016-02-26T13:27:24.661Z,6.28
2016-02-26T13:28:24.680Z,6.31
2016-02-26T13:29:24.871Z,6.56
2016-02-26T13:30:24.717Z,6.71
2016-02-26T13:31:25.656Z,6.82
2016-02-26T13:32:24.753Z,6.89
2016-02-26T13:33:24.741Z,6.85
2016-02-26T13:34:25.025Z,6.85
2016-02-26T13:35:24.934Z,6.77
2016-02-26T13:36:25.202Z,6.71
2016-02-26T13:37:24.783Z,6.57
2016-02-26T13:38:24.785Z,6.54
2016-02-26T13:39:31.116Z,6.57
2016-02-26T13:40:24.963Z,6.59
2016-02-26T13:41:44.263Z,6.56
2016-02-26T13:42:24.921Z,6.6
2016-02-26T13:43:24.893Z,6.44
2016-02-26T13:44:24.931Z,6.35
2016-02-26T13:45:25.402Z,6.22
2016-02-26T13:46:25.140Z,6.19
2016-02-26T13:47:24.971Z,6.25
2016-02-26T13:48:25.660Z,6.29
2016-02-26T13:49:25.882Z,6.32
2016-02-26T13:50:26.665Z,6.29
2016-02-26T13:51:25.059Z,6.34
2016-02-26T13:52:25.766Z,6.34
2016-02-26T13:53:25.159Z,6.39
2016-02-26T13:54:44.318Z,6.26
2016-02-26T13:55:53.962Z,6.16
2016-02-26T13:56:28.682Z,6.07
2016-02-26T13:57:28.514Z,6.09
2016-02-26T13:58:28.376Z,6.09
2016-02-26T13:59:28.409Z,6.12
2016-02-26T14:00:28.615Z,6.17
2016-02-26T14:01:28.431Z,6.19
2016-02-26T14:02:28.652Z,6.28
2016-02-26T14:03:28.436Z,6.34
2016-02-26T14:04:28.454Z,6.46
2016-02-26T14:05:28.910Z,6.47
2016-02-26T14:06:29.319Z,6.62
2016-02-26T14:07:28.759Z,6.64
2016-02-26T14:08:28.528Z,6.6
2016-02-26T14:09:28.592Z,6.6
2016-02-26T14:10:28.533Z,6.72
2016-02-26T14:11:28.630Z,6.72
2016-02-26T14:12:28.850Z,6.72
2016-02-26T14:13:28.619Z,6.83
2016-02-26T14:14:28.653Z,6.87
2016-02-26T14:15:28.687Z,7.04
2016-02-26T14:16:29.579Z,7.07
2016-02-26T14:17:28.910Z,7.08
2016-02-26T14:18:28.741Z,7.19
2016-02-26T14:19:28.665Z,7.26
2016-02-26T14:20:28.934Z,7.4
2016-02-26T14:21:28.968Z,7.31
2016-02-26T14:22:29.377Z,7.37
2016-02-26T14:23:28.770Z,7.4
2016-02-26T14:24:28.790Z,7.53
2016-02-26T14:25:29.464Z,7.53
2016-02-26T14:26:29.076Z,7.48
2016-02-26T14:27:28.812Z,7.74
2016-02-26T14:28:28.956Z,7.74
2016-02-26T14:29:28.911Z,7.8
2016-02-26T14:30:29.070Z,7.84
2016-02-26T14:31:29.245Z,8.08
2016-02-26T14:32:28.935Z,8.16